Sheppard Air Force Base-Wichita Falls Municipal Airport
KSPS : now visible

Airfield :











YOU CAN JOIN US ON...

 
LOGIN :

Register | Disclaimer

   EN    FR    IT 

 









Legend :    VFR   Marginal VFR   IFR   Intensive IFR   Very Intensive IFR
Visi :
Ceiling :
>= 8 km
>= 3000ft
5 to 8 km
1000 to 3000 ft
1500m to 5 km
500 to 1000 ft
800 to 1500m
200 to 500 ft
< 800m
< 200 ft
Symbols :   Thunderstorms  Fog  Heavy snow  Heavy precipitations  Wind > 20 kt






- Airport Elevation : 1019 ft
- IATA code : SPS


KSPS - Sheppard Air Force Base-Wichita Falls Municipal

CURRENT METAR :
  • 011452Z 05006KT 10SM SCT120 M03/M11 A3036 RMK AO2 SLP291 T10331111 50004

EXPIRED METARs :
  • 011352Z 00000KT 10SM FEW120 M04/M11 A3039 RMK AO2 SLP302 T10391111
  • 011252Z 03004KT 10SM CLR M04/M11 A3036 RMK AO2 SLP290 T10391106

TAF KSPS
Valid from the 01 at 12:00 until the 02 at 12:00 UTC


011120Z 0112/0212 36005KT P6SM BKN150
FM011600 09005KT P6SM BKN080 OVC150
TEMPO 0117/0121 6SM -FZRAPL BKN060
FM012100 19005KT 5SM -PL OVC030
FM020000 VRB04KT 4SM -FZRAPL OVC015
TEMPO 0202/0206 2SM -FZRA OVC010
FM020800 VRB04KT P6SM OVC015
PROB30 0208/0212 4SM -FZRA OVC008
KZFW FIR / North America



MET'MAP, your aeronautical weather chart ! - Copyright ORBIFLY December 2007 - Disclaimer

ORBIFLY MET'MAP TEAM :

Programming & Development : Alexandra Zaïnal
Original concept : Baudouin d'Aumeries
Technical & hardware support : Manuel Goepfert
Assistance : Marc-Olivier Méhu




SOURCES & CREDITS :

   NOAA       Earth
Advisory